createdAt,value
2023-11-03T00:02:14.253Z,11.32
2023-11-03T00:04:46.478Z,11.29
2023-11-03T00:07:19.309Z,11.38
2023-11-03T00:09:53.477Z,11.41
2023-11-03T00:12:26.979Z,11.42
2023-11-03T00:14:59.472Z,11.40
2023-11-03T00:17:32.406Z,11.45
2023-11-03T00:20:05.986Z,11.44
2023-11-03T00:22:37.909Z,11.46
2023-11-03T00:25:15.902Z,11.48
2023-11-03T00:27:48.458Z,11.51
2023-11-03T00:30:21.471Z,11.56
2023-11-03T00:32:54.197Z,11.58
2023-11-03T00:35:26.718Z,11.54
2023-11-03T00:37:59.311Z,11.54
2023-11-03T00:40:32.315Z,11.55
2023-11-03T00:43:04.709Z,11.59
2023-11-03T00:45:36.844Z,11.62
2023-11-03T00:48:09.215Z,11.60
2023-11-03T00:50:41.487Z,11.54
2023-11-03T00:53:13.640Z,11.48
2023-11-03T00:55:45.799Z,11.43
2023-11-03T00:58:17.828Z,11.38
2023-11-03T01:00:50.035Z,11.33
2023-11-03T01:03:22.654Z,11.29
2023-11-03T01:05:55.299Z,11.24
2023-11-03T01:08:28.871Z,11.15
2023-11-03T01:11:00.998Z,10.93
2023-11-03T01:13:35.706Z,10.86
2023-11-03T01:16:09.752Z,10.82
2023-11-03T01:18:42.683Z,10.79
2023-11-03T01:21:16.884Z,10.74
2023-11-03T01:23:50.021Z,10.69
2023-11-03T01:26:26.593Z,10.64
2023-11-03T01:28:59.617Z,10.61
2023-11-03T01:31:40.159Z,10.62
2023-11-03T01:34:13.252Z,10.54
2023-11-03T01:36:46.529Z,10.49
2023-11-03T01:39:18.759Z,10.42
2023-11-03T01:41:51.038Z,10.42
2023-11-03T01:44:23.665Z,10.36
2023-11-03T01:46:55.797Z,10.33
2023-11-03T01:49:28.317Z,10.34
2023-11-03T01:52:00.688Z,10.27
2023-11-03T01:54:33.109Z,10.23
2023-11-03T01:57:08.006Z,10.19
2023-11-03T01:59:43.694Z,10.19
2023-11-03T02:02:16.428Z,10.17
2023-11-03T02:04:50.137Z,10.18
2023-11-03T02:07:23.798Z,10.17
2023-11-03T02:09:57.314Z,10.20
2023-11-03T02:12:31.977Z,10.16
2023-11-03T02:15:06.927Z,10.12
2023-11-03T02:17:40.690Z,10.15
2023-11-03T02:20:14.079Z,10.11
2023-11-03T02:22:46.110Z,10.12
2023-11-03T02:25:18.314Z,10.07
2023-11-03T02:27:51.775Z,10.04
2023-11-03T02:30:25.540Z,10.05
2023-11-03T02:32:57.768Z,10.09
2023-11-03T02:35:29.999Z,10.10
2023-11-03T02:38:02.817Z,10.10
2023-11-03T02:40:35.056Z,10.16
2023-11-03T02:43:07.110Z,10.18
2023-11-03T02:45:39.423Z,10.16
2023-11-03T02:48:11.719Z,10.21
2023-11-03T02:50:44.467Z,10.23
2023-11-03T02:53:16.984Z,10.25
2023-11-03T02:55:49.021Z,10.22
2023-11-03T02:58:23.928Z,10.13
2023-11-03T03:00:56.440Z,10.05
2023-11-03T03:03:28.460Z,10.07
2023-11-03T03:06:00.883Z,10.00
2023-11-03T03:08:34.931Z,9.97
2023-11-03T03:11:07.438Z,9.92
2023-11-03T03:13:39.505Z,9.94
2023-11-03T03:16:12.120Z,9.85
2023-11-03T03:18:48.326Z,9.81
2023-11-03T03:21:21.565Z,9.80
2023-11-03T03:23:56.378Z,9.74
2023-11-03T03:26:29.019Z,9.71
2023-11-03T03:29:00.941Z,9.69
2023-11-03T03:31:33.253Z,9.70
2023-11-03T03:34:05.203Z,9.71
2023-11-03T03:36:37.943Z,9.69
2023-11-03T03:39:10.087Z,9.61
2023-11-03T03:41:42.400Z,9.66
2023-11-03T03:44:14.414Z,9.66
2023-11-03T03:46:46.512Z,9.59
2023-11-03T03:49:19.310Z,9.57
2023-11-03T03:51:52.353Z,9.62
2023-11-03T03:54:24.997Z,9.65
2023-11-03T03:56:57.068Z,9.66
2023-11-03T03:59:30.755Z,9.63
2023-11-03T04:02:02.824Z,9.69
2023-11-03T04:04:34.979Z,9.69
2023-11-03T04:07:08.938Z,9.67
2023-11-03T04:09:42.711Z,9.67
2023-11-03T04:12:14.922Z,9.66
2023-11-03T04:14:47.061Z,9.67
2023-11-03T04:17:19.176Z,9.66
2023-11-03T04:19:53.319Z,9.68
2023-11-03T04:22:25.348Z,9.63
2023-11-03T04:24:57.431Z,9.71
2023-11-03T04:27:29.377Z,9.72
2023-11-03T04:30:01.360Z,9.71
2023-11-03T04:32:34.201Z,9.73
2023-11-03T04:35:07.005Z,9.71
2023-11-03T04:37:39.114Z,9.66
2023-11-03T04:40:14.561Z,9.67
2023-11-03T04:42:46.655Z,9.69
2023-11-03T04:45:19.528Z,9.72
2023-11-03T04:47:51.750Z,9.72
2023-11-03T04:50:23.949Z,9.68
2023-11-03T04:52:56.216Z,9.64
2023-11-03T04:55:29.441Z,9.67
2023-11-03T04:58:02.019Z,9.68
2023-11-03T05:00:34.067Z,9.69
2023-11-03T05:03:06.217Z,9.72
2023-11-03T05:05:38.558Z,9.67
2023-11-03T05:08:10.721Z,9.68
2023-11-03T05:10:42.627Z,9.69
2023-11-03T05:13:15.157Z,9.69
2023-11-03T05:15:47.225Z,9.72
2023-11-03T05:18:19.600Z,9.70
2023-11-03T05:20:51.676Z,9.71
2023-11-03T05:23:28.457Z,9.72
2023-11-03T05:26:00.607Z,9.74
2023-11-03T05:28:32.860Z,9.74
2023-11-03T05:31:04.819Z,9.74
2023-11-03T05:33:37.265Z,9.79
2023-11-03T05:36:12.850Z,9.79
2023-11-03T05:38:46.682Z,9.79
2023-11-03T05:41:18.881Z,9.75
2023-11-03T05:43:51.649Z,9.77
2023-11-03T05:46:25.352Z,9.76
2023-11-03T05:48:58.590Z,9.73
2023-11-03T05:51:31.218Z,9.79
2023-11-03T05:54:04.649Z,9.80
2023-11-03T05:56:37.293Z,9.76
2023-11-03T05:59:09.657Z,9.77
2023-11-03T06:01:42.406Z,9.75
2023-11-03T06:04:16.011Z,9.74
2023-11-03T06:06:50.187Z,9.75
2023-11-03T06:09:24.313Z,9.76
2023-11-03T06:11:56.319Z,9.76
2023-11-03T06:14:28.687Z,9.80
2023-11-03T06:17:00.437Z,9.83
2023-11-03T06:19:32.894Z,9.89
2023-11-03T06:22:04.967Z,9.91
2023-11-03T06:24:37.397Z,9.94
2023-11-03T06:27:09.798Z,9.96
2023-11-03T06:29:42.097Z,10.00
2023-11-03T06:32:14.076Z,10.04
2023-11-03T06:34:46.644Z,10.04
2023-11-03T06:37:18.640Z,10.04
2023-11-03T06:39:55.048Z,10.05
2023-11-03T06:42:27.479Z,10.06
2023-11-03T06:45:00.405Z,10.01
2023-11-03T06:47:32.488Z,9.97
2023-11-03T06:50:05.377Z,9.99
2023-11-03T06:52:38.908Z,10.00
2023-11-03T06:55:13.657Z,10.08
2023-11-03T06:57:48.916Z,10.16
2023-11-03T07:00:21.623Z,10.19
2023-11-03T07:02:54.503Z,10.16
2023-11-03T07:05:27.122Z,10.16
2023-11-03T07:07:59.277Z,10.11
2023-11-03T07:10:31.635Z,10.15
2023-11-03T07:13:06.196Z,10.16
2023-11-03T07:15:38.843Z,10.19
2023-11-03T07:18:13.591Z,10.25
2023-11-03T07:20:46.192Z,10.30
2023-11-03T07:23:19.122Z,10.33
2023-11-03T07:25:54.603Z,10.29
2023-11-03T07:28:27.188Z,10.34
2023-11-03T07:30:59.390Z,10.35
2023-11-03T07:33:31.593Z,10.35
2023-11-03T07:36:03.664Z,10.38
2023-11-03T07:38:36.760Z,10.52
2023-11-03T07:41:10.368Z,10.57
2023-11-03T07:43:45.968Z,10.54
2023-11-03T07:46:18.066Z,10.65
2023-11-03T07:48:50.288Z,10.69
2023-11-03T07:51:23.226Z,10.68
2023-11-03T07:53:58.123Z,10.71
2023-11-03T07:56:35.717Z,10.71
2023-11-03T07:59:09.452Z,10.67
2023-11-03T08:01:42.234Z,10.75
2023-11-03T08:04:15.705Z,10.75
2023-11-03T08:06:50.212Z,10.68
2023-11-03T08:09:21.693Z,10.63
2023-11-03T08:11:54.138Z,10.61
2023-11-03T08:14:26.277Z,10.64
2023-11-03T08:16:58.467Z,10.60
2023-11-03T08:19:30.586Z,10.60
2023-11-03T08:22:03.144Z,10.60
2023-11-03T08:24:35.177Z,10.58
2023-11-03T08:27:08.568Z,10.61
2023-11-03T08:29:39.054Z,10.58
2023-11-03T08:32:12.751Z,10.53
2023-11-03T08:34:46.727Z,10.57
2023-11-03T08:37:23.509Z,10.59
2023-11-03T08:39:56.011Z,10.64
2023-11-03T08:42:28.279Z,10.65
2023-11-03T08:45:00.271Z,10.57
2023-11-03T08:47:33.046Z,10.53
2023-11-03T08:50:04.290Z,10.56
2023-11-03T08:52:37.738Z,10.55
2023-11-03T08:55:12.012Z,10.60
2023-11-03T08:57:45.381Z,10.59
2023-11-03T09:00:18.550Z,10.67
2023-11-03T09:02:50.861Z,10.66
2023-11-03T09:05:23.209Z,10.72
2023-11-03T09:07:55.783Z,10.73
2023-11-03T09:10:30.207Z,10.73
2023-11-03T09:13:03.027Z,10.75
2023-11-03T09:15:42.996Z,10.74
2023-11-03T09:18:18.533Z,10.73
2023-11-03T09:20:50.413Z,10.79
2023-11-03T09:23:22.925Z,10.87
2023-11-03T09:25:55.425Z,10.97
2023-11-03T09:28:28.041Z,11.03
2023-11-03T09:31:01.564Z,11.18
2023-11-03T09:33:33.795Z,11.22
2023-11-03T09:36:07.882Z,11.30
2023-11-03T09:38:40.554Z,11.38
2023-11-03T09:41:14.411Z,11.47
2023-11-03T09:43:47.937Z,11.49
2023-11-03T09:46:20.981Z,11.42
2023-11-03T09:48:55.238Z,11.50
2023-11-03T09:51:28.664Z,11.57
2023-11-03T09:54:06.895Z,11.55
2023-11-03T09:56:39.679Z,11.59
2023-11-03T09:59:11.988Z,11.58
2023-11-03T10:01:45.981Z,11.64
2023-11-03T10:04:18.186Z,11.65
2023-11-03T10:06:50.971Z,11.69
2023-11-03T10:09:24.578Z,11.70
2023-11-03T10:11:58.587Z,11.75
2023-11-03T10:14:30.827Z,11.80
2023-11-03T10:17:03.320Z,11.79
2023-11-03T10:19:36.422Z,11.84
2023-11-03T10:22:10.745Z,11.83
2023-11-03T10:24:43.806Z,11.74
2023-11-03T10:27:16.047Z,11.77
2023-11-03T10:29:48.381Z,11.75
2023-11-03T10:32:22.894Z,11.80
2023-11-03T10:34:58.106Z,11.76
2023-11-03T10:37:32.927Z,11.71
2023-11-03T10:40:08.918Z,11.65
2023-11-03T10:42:43.923Z,11.69
2023-11-03T10:45:19.012Z,11.63
2023-11-03T10:48:06.607Z,11.63
2023-11-03T10:50:47.048Z,11.68
2023-11-03T10:53:27.094Z,11.62
2023-11-03T10:56:22.410Z,11.60
2023-11-03T10:59:02.530Z,11.65
2023-11-03T11:01:44.673Z,11.70
2023-11-03T11:04:24.662Z,11.69
2023-11-03T11:07:02.302Z,11.77
2023-11-03T11:09:40.690Z,11.79
2023-11-03T11:12:14.842Z,11.83
2023-11-03T11:14:47.558Z,11.88
2023-11-03T11:17:37.922Z,11.98
2023-11-03T11:20:28.435Z,12.03
2023-11-03T11:23:11.646Z,12.03
2023-11-03T11:25:45.187Z,12.00
2023-11-03T11:28:42.091Z,11.96
2023-11-03T11:31:43.310Z,11.91
2023-11-03T11:34:18.874Z,11.92
2023-11-03T11:36:52.891Z,11.94
2023-11-03T11:39:25.317Z,11.99
2023-11-03T11:42:01.969Z,11.96
2023-11-03T11:44:35.429Z,11.97
2023-11-03T11:47:08.472Z,12.01
2023-11-03T11:49:43.275Z,12.00
2023-11-03T11:52:17.027Z,12.00
2023-11-03T11:54:49.509Z,11.95
2023-11-03T11:57:22.477Z,12.02
2023-11-03T11:59:55.271Z,11.95
2023-11-03T12:02:28.234Z,11.97
2023-11-03T12:05:00.410Z,11.97
2023-11-03T12:07:34.600Z,12.04
2023-11-03T12:10:09.562Z,12.08
2023-11-03T12:12:41.641Z,12.12
2023-11-03T12:15:16.484Z,12.09
2023-11-03T12:17:49.500Z,12.15
2023-11-03T12:20:22.386Z,12.17
2023-11-03T12:22:54.565Z,12.16
2023-11-03T12:25:27.383Z,12.15
2023-11-03T12:28:00.220Z,12.18
2023-11-03T12:30:34.162Z,12.20
2023-11-03T12:33:07.861Z,12.24
2023-11-03T12:35:41.587Z,12.24
2023-11-03T12:38:12.687Z,12.34
2023-11-03T12:40:46.037Z,12.28
2023-11-03T12:43:16.942Z,12.36
2023-11-03T12:46:05.337Z,12.40
2023-11-03T12:48:38.690Z,12.46
2023-11-03T12:51:14.286Z,12.46
2023-11-03T12:53:53.140Z,12.51
2023-11-03T12:56:25.371Z,12.50
2023-11-03T12:58:57.677Z,12.49
2023-11-03T13:01:29.978Z,12.52
2023-11-03T13:04:02.191Z,12.49
2023-11-03T13:06:38.038Z,12.47
2023-11-03T13:09:15.531Z,12.49
2023-11-03T13:11:47.990Z,12.38
2023-11-03T13:14:20.722Z,12.39
2023-11-03T13:16:55.116Z,12.41
2023-11-03T13:19:27.113Z,12.33
2023-11-03T13:21:59.700Z,12.38
2023-11-03T13:24:32.070Z,12.35
2023-11-03T13:27:06.139Z,12.33
2023-11-03T13:29:39.913Z,12.39
2023-11-03T13:32:12.541Z,12.37
2023-11-03T13:34:46.048Z,12.37
2023-11-03T13:37:18.920Z,12.30
2023-11-03T13:39:51.559Z,12.29
2023-11-03T13:42:24.428Z,12.29
2023-11-03T13:44:57.660Z,12.36
2023-11-03T13:47:29.889Z,12.35
2023-11-03T13:50:11.254Z,12.34
2023-11-03T13:52:47.718Z,12.37
2023-11-03T13:55:23.559Z,12.38
2023-11-03T13:58:01.577Z,12.36
2023-11-03T14:00:34.281Z,12.33
2023-11-03T14:03:09.210Z,12.41
2023-11-03T14:05:44.366Z,12.42
2023-11-03T14:08:18.837Z,12.42
2023-11-03T14:10:52.481Z,12.30
2023-11-03T14:13:24.507Z,12.21
2023-11-03T14:15:56.592Z,12.08
2023-11-03T14:18:28.981Z,11.94
2023-11-03T14:21:02.313Z,11.88
2023-11-03T14:23:32.681Z,11.91
2023-11-03T14:26:05.073Z,11.80
2023-11-03T14:28:37.613Z,11.81
2023-11-03T14:31:10.429Z,11.74
2023-11-03T14:33:43.656Z,11.70
2023-11-03T14:36:17.540Z,11.68
2023-11-03T14:38:50.270Z,11.72
2023-11-03T14:41:25.773Z,11.79
2023-11-03T14:43:58.005Z,11.80
2023-11-03T14:46:30.123Z,11.79
2023-11-03T14:49:03.119Z,11.73
2023-11-03T14:51:35.368Z,11.72
2023-11-03T14:54:21.856Z,11.75
2023-11-03T14:56:57.245Z,11.68
2023-11-03T14:59:36.438Z,11.68
2023-11-03T15:02:10.811Z,11.73
2023-11-03T15:04:43.827Z,11.75
2023-11-03T15:07:15.903Z,11.80
2023-11-03T15:09:48.819Z,11.82
2023-11-03T15:12:23.759Z,11.83
2023-11-03T15:14:56.747Z,11.78
2023-11-03T15:17:29.549Z,11.81
2023-11-03T15:20:10.387Z,11.82
2023-11-03T15:22:43.571Z,11.80
2023-11-03T15:25:18.133Z,11.78
2023-11-03T15:27:52.988Z,11.79
2023-11-03T15:30:25.240Z,11.80
2023-11-03T15:32:57.882Z,11.87
2023-11-03T15:35:30.390Z,11.91
2023-11-03T15:38:02.549Z,11.90
2023-11-03T15:40:34.973Z,11.91
2023-11-03T15:43:07.209Z,11.82
2023-11-03T15:45:41.296Z,11.88
2023-11-03T15:48:14.218Z,11.98
2023-11-03T15:50:47.116Z,11.93
2023-11-03T15:53:19.325Z,11.90
2023-11-03T15:55:52.488Z,11.90
2023-11-03T15:58:25.426Z,11.96
2023-11-03T16:00:59.581Z,11.97
2023-11-03T16:03:33.467Z,11.94
2023-11-03T16:06:07.566Z,11.96
2023-11-03T16:08:40.767Z,11.93
2023-11-03T16:11:16.439Z,11.98
2023-11-03T16:13:48.645Z,12.04
2023-11-03T16:16:21.154Z,12.04
2023-11-03T16:18:57.258Z,11.97
2023-11-03T16:21:30.780Z,12.00
2023-11-03T16:24:01.084Z,11.96
2023-11-03T16:26:33.919Z,11.79
2023-11-03T16:29:07.579Z,11.75
2023-11-03T16:31:39.996Z,11.73
2023-11-03T16:34:13.381Z,11.70
2023-11-03T16:36:47.130Z,11.76
2023-11-03T16:39:19.207Z,11.77
2023-11-03T16:41:51.807Z,11.74
2023-11-03T16:44:24.227Z,11.72
2023-11-03T16:46:57.406Z,11.72
2023-11-03T16:49:30.879Z,11.70
2023-11-03T16:52:03.236Z,11.67
2023-11-03T16:54:36.887Z,11.73
2023-11-03T16:57:13.369Z,11.67
2023-11-03T16:59:48.861Z,11.67
2023-11-03T17:02:21.217Z,11.67
2023-11-03T17:04:53.291Z,11.68
2023-11-03T17:07:28.720Z,11.70
2023-11-03T17:10:02.104Z,11.69
2023-11-03T17:12:43.674Z,11.74
2023-11-03T17:15:23.789Z,11.76
2023-11-03T17:17:58.465Z,11.83
2023-11-03T17:20:32.236Z,11.86
2023-11-03T17:23:05.479Z,11.84
2023-11-03T17:25:38.631Z,11.85
2023-11-03T17:28:13.708Z,11.85
2023-11-03T17:30:51.449Z,11.88
2023-11-03T17:33:24.274Z,11.89
2023-11-03T17:35:56.440Z,11.91
2023-11-03T17:38:28.515Z,11.89
2023-11-03T17:41:00.415Z,11.95
2023-11-03T17:43:32.645Z,11.96
2023-11-03T17:46:04.801Z,11.99
2023-11-03T17:48:37.987Z,12.06
2023-11-03T17:51:10.703Z,12.01
2023-11-03T17:53:45.007Z,12.04
2023-11-03T17:56:17.377Z,11.96
2023-11-03T17:58:50.140Z,11.94
2023-11-03T18:01:22.661Z,12.01
2023-11-03T18:03:54.835Z,11.96
2023-11-03T18:06:29.557Z,11.89
2023-11-03T18:09:02.982Z,11.78
2023-11-03T18:11:34.811Z,11.68
2023-11-03T18:14:08.630Z,11.60
2023-11-03T18:16:40.730Z,11.54
2023-11-03T18:19:13.089Z,11.48
2023-11-03T18:21:46.049Z,11.43
2023-11-03T18:24:19.144Z,11.40
2023-11-03T18:26:51.135Z,11.40
2023-11-03T18:29:24.172Z,11.28
2023-11-03T18:31:57.286Z,11.26
2023-11-03T18:34:29.762Z,11.26
2023-11-03T18:37:03.272Z,11.07
2023-11-03T18:39:37.327Z,11.12
2023-11-03T18:42:14.521Z,11.19
2023-11-03T18:44:50.741Z,11.13
2023-11-03T18:47:22.739Z,11.16
2023-11-03T18:52:39.529Z,11.12
2023-11-03T18:56:08.694Z,11.17
2023-11-03T18:58:47.947Z,11.22
2023-11-03T19:08:53.697Z,11.08
2023-11-03T19:11:31.176Z,11.15
2023-11-03T19:14:08.329Z,11.15
2023-11-03T19:16:46.998Z,11.14
2023-11-03T19:19:22.900Z,11.17
2023-11-03T19:22:00.417Z,11.12
2023-11-03T19:24:52.704Z,11.13
2023-11-03T19:27:39.956Z,11.07
2023-11-03T19:30:18.692Z,11.06
2023-11-03T19:33:00.379Z,10.97
2023-11-03T19:35:50.992Z,10.92
2023-11-03T19:38:27.234Z,10.97
2023-11-03T19:41:05.249Z,10.90
2023-11-03T19:43:44.068Z,10.84
2023-11-03T19:46:23.871Z,10.80
2023-11-03T19:49:03.176Z,10.81
2023-11-03T19:51:46.224Z,10.77
2023-11-03T19:54:26.136Z,10.77
2023-11-03T19:57:04.143Z,10.72
2023-11-03T19:59:53.276Z,10.66
2023-11-03T20:02:31.780Z,10.53
2023-11-03T20:05:08.980Z,10.45
2023-11-03T20:07:49.271Z,10.46
2023-11-03T20:10:28.882Z,10.46
2023-11-03T20:13:03.986Z,10.48
2023-11-03T20:15:41.064Z,10.41
2023-11-03T20:18:16.585Z,10.42
2023-11-03T20:20:57.340Z,10.40
2023-11-03T20:23:35.030Z,10.32
2023-11-03T20:26:17.899Z,10.29
2023-11-03T20:28:55.259Z,10.27
2023-11-03T20:31:42.678Z,10.24
2023-11-03T20:34:31.936Z,10.26
2023-11-03T20:37:06.429Z,10.26
2023-11-03T20:39:43.548Z,10.23
2023-11-03T20:42:20.775Z,10.18
2023-11-03T20:44:58.038Z,10.18
2023-11-03T20:47:33.450Z,10.23
2023-11-03T20:50:12.117Z,10.25
2023-11-03T20:52:49.350Z,10.27
2023-11-03T20:55:27.043Z,10.29
2023-11-03T20:58:02.687Z,10.32
2023-11-03T21:00:40.414Z,10.37
2023-11-03T21:03:19.466Z,10.26
2023-11-03T21:06:01.314Z,10.34
2023-11-03T21:08:36.011Z,10.34
2023-11-03T21:11:12.964Z,10.20
2023-11-03T21:13:48.795Z,10.17
2023-11-03T21:16:24.012Z,10.20
2023-11-03T21:19:00.322Z,10.11
2023-11-03T21:21:41.761Z,10.14
2023-11-03T21:24:19.413Z,10.22
2023-11-03T21:26:56.839Z,10.24
2023-11-03T21:29:32.550Z,10.23
2023-11-03T21:32:07.139Z,10.12
2023-11-03T21:34:43.841Z,10.11
2023-11-03T21:37:20.385Z,10.11
2023-11-03T21:39:57.515Z,10.09
2023-11-03T21:42:35.995Z,9.97
2023-11-03T21:45:14.603Z,9.92
2023-11-03T21:47:52.701Z,9.85
2023-11-03T21:50:32.528Z,9.73
2023-11-03T21:53:18.301Z,9.70
2023-11-03T21:56:13.243Z,9.68
2023-11-03T21:58:49.896Z,9.65
2023-11-03T22:01:25.195Z,9.60
2023-11-03T22:04:03.658Z,9.53
2023-11-03T22:06:38.985Z,9.49
2023-11-03T22:09:14.436Z,9.49
2023-11-03T22:11:49.977Z,9.51
2023-11-03T22:14:24.423Z,9.48
2023-11-03T22:17:04.502Z,9.43
2023-11-03T22:19:40.230Z,9.42
2023-11-03T22:22:16.541Z,9.35
2023-11-03T22:24:51.354Z,9.24
2023-11-03T22:27:28.987Z,9.11
2023-11-03T22:30:05.276Z,8.98
2023-11-03T22:32:41.950Z,8.89
2023-11-03T22:35:17.371Z,8.80
2023-11-03T22:37:54.808Z,8.69
2023-11-03T22:40:31.963Z,8.56
2023-11-03T22:43:10.462Z,8.51
2023-11-03T22:45:45.303Z,8.42
2023-11-03T22:48:24.481Z,8.36
2023-11-03T22:50:59.251Z,8.23
2023-11-03T22:53:34.843Z,8.20
2023-11-03T22:56:12.825Z,8.18
2023-11-03T22:58:49.286Z,8.11
2023-11-03T23:01:25.240Z,8.02
2023-11-03T23:04:00.919Z,7.96
2023-11-03T23:06:36.444Z,7.92
2023-11-03T23:09:14.099Z,7.83
2023-11-03T23:11:50.654Z,7.80
2023-11-03T23:14:27.616Z,7.71
2023-11-03T23:17:03.890Z,7.66
2023-11-03T23:19:39.560Z,7.60
2023-11-03T23:22:14.648Z,7.53
2023-11-03T23:24:51.345Z,7.47
2023-11-03T23:27:28.053Z,7.49
2023-11-03T23:30:02.811Z,7.46
2023-11-03T23:32:38.370Z,7.42
2023-11-03T23:35:15.654Z,7.36
2023-11-03T23:37:48.497Z,7.32
2023-11-03T23:40:20.906Z,7.31
2023-11-03T23:42:53.585Z,7.31
2023-11-03T23:45:26.012Z,7.26
2023-11-03T23:47:58.297Z,7.16
2023-11-03T23:50:30.959Z,7.13
2023-11-03T23:53:02.967Z,7.12
2023-11-03T23:55:35.268Z,7.09
2023-11-03T23:58:07.187Z,7.08
